Young America, Minnesota
Current Conditions -  °F | °C
As of 1:33 PM on Friday 31 Oct 2014 (Local Time) from KGYL Reporting Station
Clear Clear  
Wind Chill:   Ceiling: Unl
Heat Index:   Visibility: 10mi
Dew Point: -7°   Wind: 6mph
Humidity: 49%   Direction: 360°N
Pressure: 30.54"   Gusts: NA
Location:  44.78°N, 93.92°W
Report Text: KGYL 311833Z AUTO 36005KT 10SM CLR 03/M07 A3054 RMK AO2 T00291069
Loading
Personal Weather Stations






























Interactive Weather Map
Tropical Storm Tracking
New forecast layout! Learn more

10-Day Weather Forecast

Advertisements
Track Severe Weather on mobile